Cheektowaga, New York
Current Conditions -  °F | °C
As of 2:54 PM on Thursday 20 Nov 2014 (Local Time) from KBUF Reporting Station
Light Snow Light Snow  
Wind Chill: 15°   Ceiling: 5000
Heat Index: 27°   Visibility: 10mi
Dew Point: 10°   Wind: 15mph
Humidity: 49%   Direction: 250°WSW
Pressure: 29.83"   Gusts: 25mph
Location:  42.9°N, 78.74°W
Report Text: KBUF 201954Z 25013G22KT 10SM -SN FEW025 BKN050 BKN070 M03/M12 A2983 RMK AO2 SNB39 SLP110 CB DSNT N-NE MOV E TCU DSNT N MDT CU DSNT NW-N VIS LWR E-S-SW PCPN VRY LGT P0000 T10281122
Loading
Personal Weather Stations






























Interactive Weather Map New forecast layout! Learn more

10-Day Weather Forecast

Advertisements
Track Severe Weather on mobile